Weather observations for the past three days for
Ontario Municipal Airport
Imperial (Metric)
Date Time (mdt) Wind (mph) Vis. (mi.) Weather Sky Cond. Temperature (ºF) Relative Humidity Wind Chill (°F) Heat Index (°F) Pressure Precipitation (in)
Air Dwpt 6 hour altimeter (in) sea level (mb) 1 hr 3 hr 6 hr
Max. Min.
02 12:53 SE 6 10.00 Fair CLR 70 36 29% 30.03 1016.4
02 11:53 Calm 10.00 Fair CLR 66 37 66.9 41 34% 30.05 1017.1
02 10:53 E 6 10.00 Fair CLR 63 37 38% 30.05 1017.3
02 09:53 Calm 10.00 Fair CLR 55.9 39.9 55% 30.06 1017.6
02 08:53 Calm 10.00 Fair CLR 48.9 37.9 66% 30.06 1017.5
02 07:53 W 5 10.00 Fair CLR 44.1 37 76% 42 30.05 1017.3
02 06:53 W 5 10.00 Fair CLR 41 36 82% 38 30.04 1016.9
02 05:53 NW 5 10.00 Fair CLR 41 37 54 41 86% 38 30.04 1016.9
02 04:53 W 6 10.00 Fair CLR 45 37 74% 42 30.04 1016.7
02 03:53 W 7 10.00 Fair CLR 46 37.9 73% 43 30.03 1016.5
02 02:53 W 5 10.00 Fair CLR 45 37.9 77% 43 30.03 1016.6
02 01:53 W 3 10.00 Fair CLR 46.9 37.9 71% 30.04 1016.8
02 00:53 Calm 10.00 Fair CLR 50 39 66% 30.03 1016.7
01 23:53 Calm 10.00 Fair CLR 54 39 75 54 57% 30.03 1016.4
01 22:53 E 3 10.00 Fair CLR 55.9 39 53% 30.03 1016.7
01 21:53 N 5 10.00 Fair CLR 62.1 37.9 41% 30.02 1016.4
01 20:53 N 3 10.00 Fair CLR 68 35.1 30% 30.01 1016.0
01 19:53 NE 5 10.00 Fair CLR 72 35.1 26% 30.01 1016.1
01 18:53 E 5 10.00 Fair CLR 73.9 33.1 22% 30.02 1016.8
01 17:53 N 6 10.00 Fair CLR 75 33.1 75.9 64.9 22% 76 30.03 1016.9
01 16:53 S 3 10.00 Fair CLR 73.9 28.9 19% 30.05 1017.5
01 15:53 E 6 10.00 Fair CLR 73.9 28 18% 30.08 1018.5
01 14:53 S 7 10.00 Fair CLR 73 33.1 23% 30.1 1019.2
01 13:53 E 6 10.00 Fair CLR 71.1 37.9 30% 30.12 1019.8
01 12:53 NE 5 10.00 Fair CLR 68 39 35% 30.15 1020.7
01 11:53 Vrbl 5 10.00 Fair CLR 64.9 42.1 64.9 36 43% 30.17 1021.4
01 10:53 NW 3 10.00 Fair CLR 57.9 39.9 51% 30.18 1022.0
01 09:53 Calm 10.00 Fair CLR 52 37.9 59% 30.18 1022.3
01 08:53 Calm 10.00 Fair CLR 46.9 37.9 71% 30.17 1021.9
01 07:53 W 3 10.00 Fair CLR 41 35.1 79% 30.16 1021.4
01 06:53 W 5 10.00 Fair CLR 36 32 86% 33 30.14 1020.8
01 05:53 W 3 10.00 Fair CLR 37.9 33.1 50 37 83% 30.13 1020.3
01 04:53 W 3 10.00 Fair CLR 39 34 82% 30.12 1020.1
01 03:53 Calm 10.00 Fair CLR 42.1 34 73% 30.12 1019.9
01 02:53 SW 5 10.00 Fair CLR 43 36 76% 41 30.11 1019.8
01 01:53 W 3 10.00 Fair CLR 46 35.1 66% 30.11 1019.6
01 00:53 W 6 10.00 Fair CLR 46.9 35.1 63% 45 30.1 1019.0
30 23:53 SW 8 10.00 Fair CLR 50 35.1 71.1 48 57% 47 30.08 1018.6
30 22:53 W 8 10.00 Fair CLR 52 36 55% 30.07 1018.3
30 21:53 W 3 10.00 Fair CLR 55 36 49% 30.06 1017.9
30 20:53 W 3 10.00 Fair CLR 64 32 30% 30.05 1017.3
30 19:53 N 5 10.00 Fair CLR 68 32 26% 30.05 1017.5
30 18:53 N 3 10.00 Fair CLR 70 30.9 23% 30.06 1018.1
30 17:53 Calm 10.00 Fair CLR 71.1 33.1 71.1 62.1 25% 30.07 1018.1
30 16:53 W 5 10.00 Fair CLR 70 33.1 26% 30.08 1018.6
30 15:53 NW 8 10.00 Fair CLR 70 36 29% 30.11 1019.5
30 14:53 Calm 10.00 A Few Clouds FEW070 69.1 36 30% 30.13 1020.1
30 13:53 S 6 10.00 Fair CLR 66.9 36 32% 30.14 1020.8
30 12:53 SE 3 10.00 Fair CLR 66 35.1 32% 30.16 1021.4
30 11:53 Vrbl 5 10.00 Fair CLR 62.1 37 62.1 37 40% 30.18 1022.1
30 10:53 Calm 10.00 Fair CLR 57.9 36 44% 30.19 1022.4
30 09:53 N 5 10.00 Fair CLR 54 37 53% 30.2 1022.6
30 08:53 Calm 10.00 Fair CLR 48.9 37 64% 30.2 1023.0
30 07:53 Calm 10.00 Fair CLR 43 35.1 74% 30.19 1022.5
30 06:53 W 7 10.00 Fair CLR 37 33.1 86% 32 30.16 1021.8
30 05:53 Calm 10.00 Fair CLR 43 34 50 41 71% 30.16 1021.5
30 04:53 W 6 10.00 Fair CLR 44.1 34 68% 41 30.15 1020.9
30 03:53 W 5 10.00 Fair CLR 44.1 34 68% 42 30.14 1020.4
30 02:53 W 6 10.00 Fair CLR 44.1 35.1 71% 41 30.14 1020.6
30 01:53 W 5 10.00 Fair CLR 45 36 71% 43 30.14 1020.6
30 00:53 W 6 10.00 Fair CLR 46.9 36 66% 45 30.13 1020.3
29 23:53 Calm 10.00 Fair CLR 48.9 36 69.1 48.9 61% 30.12 1019.9
29 22:53 N 6 10.00 Fair CLR 51.1 37 59% 30.12 1020.1
29 21:53 W 3 10.00 Mostly Cloudy BKN120 57.9 39.9 51% 30.1 1019.3
29 20:53 NW 6 10.00 Overcast OVC120 59 42.1 54% 30.09 1019.1
29 19:53 W 5 10.00 Fair CLR 63 36 37% 30.09 1018.9
29 18:53 N 7 10.00 Fair CLR 66.9 32 27% 30.09 1018.9
29 17:53 N 9 10.00 Mostly Cloudy BKN100 68 34 71.1 64 28% 30.1 1019.0
29 16:53 N 9 10.00 Partly Cloudy SCT120 68 33.1 27% 30.11 1019.3
29 15:53 Vrbl 6 10.00 Mostly Cloudy BKN120 71.1 34 26% 30.12 1019.5
29 14:53 Vrbl 5 G 17 10.00 Mostly Cloudy FEW080 SCT090 BKN110 66.9 33.1 29% 30.12 1019.8
29 13:53 Vrbl 7 10.00 Partly Cloudy SCT075 68 35.1 30% 30.13 1020.0
Date Time (mdt) Wind (mph) Vis. (mi.) Weather Sky Cond. Air Dwpt Max. Min. Relative Humidity Wind Chill (°F) Heat Index (°F) altimeter (in) sea level (mb) 1 hr 3 hr 6 hr
6 hour
Temperature (ºF) Pressure Precipitation (in)